createdAt,value
2022-11-13T00:01:36.986Z,70.67
2022-11-13T00:04:04.693Z,72.77
2022-11-13T00:06:33.340Z,59.03
2022-11-13T00:09:02.329Z,65.43
2022-11-13T00:11:30.026Z,58.83
2022-11-13T00:13:57.664Z,64.40
2022-11-13T00:16:25.275Z,61.17
2022-11-13T00:18:52.951Z,59.47
2022-11-13T00:21:22.781Z,65.83
2022-11-13T00:23:51.497Z,67.57
2022-11-13T00:26:21.910Z,59.67
2022-11-13T00:28:54.299Z,79.07
2022-11-13T00:31:22.387Z,64.93
2022-11-13T00:34:25.813Z,66.03
2022-11-13T00:36:38.104Z,68.87
2022-11-13T00:39:05.789Z,70.07
2022-11-13T00:41:35.283Z,65.67
2022-11-13T00:44:04.006Z,70.97
2022-11-13T00:46:31.684Z,61.87
2022-11-13T00:48:59.368Z,69.57
2022-11-13T00:51:27.023Z,54.10
2022-11-13T00:53:54.678Z,66.10
2022-11-13T00:56:22.356Z,69.67
2022-11-13T00:58:51.369Z,65.43
2022-11-13T01:01:20.652Z,68.57
2022-11-13T01:03:48.368Z,66.53
2022-11-13T01:06:18.544Z,52.50
2022-11-13T01:08:46.236Z,76.97
2022-11-13T01:11:16.228Z,63.63
2022-11-13T01:13:45.273Z,55.77
2022-11-13T01:16:14.969Z,61.57
2022-11-13T01:18:43.239Z,64.70
2022-11-13T01:21:12.631Z,65.33
2022-11-13T01:23:40.401Z,64.83
2022-11-13T01:26:09.626Z,65.43
2022-11-13T01:28:37.717Z,73.30
2022-11-13T01:31:06.521Z,56.97
2022-11-13T01:33:35.848Z,64.57
2022-11-13T01:36:05.156Z,67.30
2022-11-13T01:38:36.226Z,67.40
2022-11-13T01:41:05.158Z,68.87
2022-11-13T01:43:34.512Z,53.07
2022-11-13T01:46:21.428Z,66.20
2022-11-13T01:48:52.909Z,59.87
2022-11-13T01:51:25.652Z,63.20
2022-11-13T01:53:54.177Z,52.73
2022-11-13T01:56:22.610Z,66.50
2022-11-13T01:58:54.288Z,69.30
2022-11-13T02:01:21.965Z,55.63
2022-11-13T02:03:51.012Z,52.77
2022-11-13T02:06:18.781Z,62.57
2022-11-13T02:08:46.421Z,66.50
2022-11-13T02:11:14.430Z,61.73
2022-11-13T02:13:42.273Z,68.47
2022-11-13T02:16:10.501Z,63.50
2022-11-13T02:18:38.488Z,56.40
2022-11-13T02:21:16.216Z,65.00
2022-11-13T02:23:47.572Z,62.47
2022-11-13T02:26:17.758Z,61.97
2022-11-13T02:28:45.919Z,74.77
2022-11-13T02:31:14.829Z,66.80
2022-11-13T02:33:42.535Z,68.10
2022-11-13T02:36:10.928Z,63.73
2022-11-13T02:38:39.752Z,73.07
2022-11-13T02:41:07.520Z,70.70
2022-11-13T02:43:36.792Z,57.37
2022-11-13T02:46:04.970Z,65.20
2022-11-13T02:48:32.704Z,50.23
2022-11-13T02:51:00.372Z,71.70
2022-11-13T02:53:28.008Z,65.30
2022-11-13T02:55:55.676Z,60.47
2022-11-13T02:58:23.300Z,62.37
2022-11-13T03:00:52.396Z,68.50
2022-11-13T03:03:41.021Z,71.07
2022-11-13T03:06:07.772Z,55.57
2022-11-13T03:08:36.478Z,69.07
2022-11-13T03:11:08.558Z,59.10
2022-11-13T03:13:36.356Z,70.70
2022-11-13T03:16:13.899Z,53.93
2022-11-13T03:18:41.835Z,75.13
2022-11-13T03:21:11.168Z,63.33
2022-11-13T03:23:38.885Z,55.10
2022-11-13T03:26:08.021Z,62.33
2022-11-13T03:28:35.900Z,62.23
2022-11-13T03:31:04.733Z,56.10
2022-11-13T03:33:34.220Z,64.80
2022-11-13T03:36:01.951Z,63.30
2022-11-13T03:38:29.942Z,70.03
2022-11-13T03:40:58.010Z,68.20
2022-11-13T03:43:25.674Z,64.03
2022-11-13T03:45:53.301Z,56.53
2022-11-13T03:48:20.964Z,70.00
2022-11-13T03:50:54.495Z,68.47
2022-11-13T03:53:22.172Z,66.27
2022-11-13T03:55:49.839Z,63.20
2022-11-13T03:58:17.641Z,69.53
2022-11-13T04:00:45.552Z,65.97
2022-11-13T04:03:13.364Z,68.50
2022-11-13T04:05:41.293Z,68.33
2022-11-13T04:08:10.487Z,64.40
2022-11-13T04:10:38.156Z,57.70
2022-11-13T04:13:05.793Z,70.53
2022-11-13T04:15:33.464Z,62.73
2022-11-13T04:18:01.138Z,71.27
2022-11-13T04:20:28.834Z,58.07
2022-11-13T04:22:57.016Z,65.33
2022-11-13T04:25:26.096Z,54.57
2022-11-13T04:27:54.327Z,59.47
2022-11-13T04:30:22.007Z,70.10
2022-11-13T04:32:49.634Z,69.73
2022-11-13T04:35:17.339Z,67.97
2022-11-13T04:37:45.012Z,81.90
2022-11-13T04:40:13.068Z,71.13
2022-11-13T04:42:50.886Z,67.00
2022-11-13T04:45:19.678Z,73.83
2022-11-13T04:47:47.544Z,70.13
2022-11-13T04:50:16.534Z,63.27
2022-11-13T04:52:44.753Z,66.93
2022-11-13T04:55:12.891Z,73.73
2022-11-13T04:57:42.034Z,62.00
2022-11-13T05:00:11.066Z,58.03
2022-11-13T05:02:38.755Z,69.70
2022-11-13T05:05:07.176Z,68.43
2022-11-13T05:07:34.835Z,62.43
2022-11-13T05:10:02.495Z,66.80
2022-11-13T05:12:30.171Z,67.93
2022-11-13T05:14:59.146Z,63.93
2022-11-13T05:17:26.867Z,68.87
2022-11-13T05:19:54.630Z,69.77
2022-11-13T05:22:22.300Z,66.83
2022-11-13T05:24:49.917Z,64.43
2022-11-13T05:27:18.026Z,67.93
2022-11-13T05:29:45.742Z,68.97
2022-11-13T05:32:15.060Z,66.97
2022-11-13T05:34:42.744Z,66.40
2022-11-13T05:37:10.375Z,65.60
2022-11-13T05:39:38.024Z,65.30
2022-11-13T05:42:06.735Z,58.23
2022-11-13T05:44:34.462Z,63.67
2022-11-13T05:47:02.128Z,64.33
2022-11-13T05:49:31.123Z,70.73
2022-11-13T05:51:58.772Z,63.73
2022-11-13T05:54:26.418Z,63.03
2022-11-13T05:56:54.048Z,60.63
2022-11-13T05:59:21.716Z,63.67
2022-11-13T06:01:49.382Z,49.23
2022-11-13T06:04:17.080Z,65.83
2022-11-13T06:06:46.106Z,62.43
2022-11-13T06:09:17.158Z,66.40
2022-11-13T06:11:45.128Z,75.47
2022-11-13T06:14:12.789Z,69.73
2022-11-13T06:16:40.957Z,64.90
2022-11-13T06:19:11.003Z,58.27
2022-11-13T06:21:40.841Z,70.97
2022-11-13T06:24:12.711Z,61.27
2022-11-13T06:26:40.688Z,67.57
2022-11-13T06:29:10.696Z,66.40
2022-11-13T06:31:38.744Z,64.67
2022-11-13T06:34:07.295Z,66.17
2022-11-13T06:36:36.250Z,65.77
2022-11-13T06:39:07.009Z,67.37
2022-11-13T06:41:36.291Z,70.27
2022-11-13T06:44:03.982Z,68.17
2022-11-13T06:46:31.955Z,60.33
2022-11-13T06:48:59.843Z,72.70
2022-11-13T06:51:28.912Z,68.07
2022-11-13T06:53:56.935Z,66.20
2022-11-13T06:56:25.197Z,66.47
2022-11-13T06:58:54.977Z,73.77
2022-11-13T07:01:24.376Z,70.23
2022-11-13T07:03:52.119Z,66.17
2022-11-13T07:06:21.808Z,68.20
2022-11-13T07:08:49.576Z,75.60
2022-11-13T07:11:18.382Z,65.67
2022-11-13T07:13:46.178Z,53.17
2022-11-13T07:16:18.010Z,65.83
2022-11-13T07:18:46.168Z,78.17
2022-11-13T07:21:13.903Z,61.90
2022-11-13T07:23:43.312Z,67.30
2022-11-13T07:26:57.832Z,68.20
2022-11-13T07:29:25.485Z,67.90
2022-11-13T07:31:53.499Z,66.27
2022-11-13T07:34:21.178Z,66.90
2022-11-13T07:36:48.795Z,70.83
2022-11-13T07:39:16.438Z,70.30
2022-11-13T07:41:44.145Z,69.23
2022-11-13T07:44:27.272Z,56.03
2022-11-13T07:47:00.740Z,69.50
2022-11-13T07:49:28.396Z,72.57
2022-11-13T07:51:56.025Z,56.67
2022-11-13T07:54:23.687Z,57.63
2022-11-13T07:56:51.347Z,53.83
2022-11-13T07:59:20.323Z,64.97
2022-11-13T08:01:48.067Z,55.23
2022-11-13T08:04:15.688Z,61.43
2022-11-13T08:06:43.483Z,69.50
2022-11-13T08:09:11.168Z,65.33
2022-11-13T08:11:38.866Z,64.57
2022-11-13T08:14:06.530Z,57.43
2022-11-13T08:16:35.595Z,69.33
2022-11-13T08:19:03.401Z,72.50
2022-11-13T08:21:31.371Z,69.17
2022-11-13T08:23:59.090Z,66.73
2022-11-13T08:26:26.795Z,69.33
2022-11-13T08:28:54.445Z,72.30
2022-11-13T08:31:22.097Z,67.60
2022-11-13T08:33:51.069Z,72.30
2022-11-13T08:36:18.727Z,71.30
2022-11-13T08:38:46.371Z,79.07
2022-11-13T08:41:14.012Z,57.90
2022-11-13T08:43:41.665Z,72.30
2022-11-13T08:46:09.341Z,70.80
2022-11-13T08:48:37.696Z,62.97
2022-11-13T08:51:07.047Z,78.27
2022-11-13T08:53:34.677Z,72.07
2022-11-13T08:56:02.963Z,66.80
2022-11-13T08:58:30.940Z,69.80
2022-11-13T09:01:01.507Z,71.17
2022-11-13T09:03:29.248Z,71.03
2022-11-13T09:05:56.948Z,85.87
2022-11-13T09:08:26.199Z,73.57
2022-11-13T09:10:54.152Z,68.40
2022-11-13T09:13:21.772Z,57.10
2022-11-13T09:15:49.442Z,62.60
2022-11-13T09:18:17.065Z,63.07
2022-11-13T09:20:44.801Z,79.47
2022-11-13T09:23:12.484Z,70.17
2022-11-13T09:25:41.532Z,67.17
2022-11-13T09:28:09.832Z,81.50
2022-11-13T09:30:39.045Z,62.27
2022-11-13T09:33:07.436Z,70.77
2022-11-13T09:35:35.120Z,66.70
2022-11-13T09:38:07.923Z,68.93
2022-11-13T09:40:43.287Z,59.07
2022-11-13T09:43:21.517Z,76.53
2022-11-13T09:45:49.539Z,67.77
2022-11-13T09:48:25.268Z,59.00
2022-11-13T09:50:53.482Z,59.03
2022-11-13T09:53:21.323Z,76.37
2022-11-13T09:55:58.086Z,62.53
2022-11-13T09:58:32.405Z,68.50
2022-11-13T10:01:01.700Z,64.50
2022-11-13T10:06:30.609Z,61.63
2022-11-13T10:08:59.620Z,67.50
2022-11-13T10:11:39.449Z,64.00
2022-11-13T10:14:19.169Z,64.13
2022-11-13T10:16:50.440Z,60.70
2022-11-13T10:19:22.768Z,59.73
2022-11-13T10:22:07.813Z,68.17
2022-11-13T10:24:42.985Z,61.47
2022-11-13T10:27:13.299Z,69.93
2022-11-13T10:29:46.184Z,71.07
2022-11-13T10:32:18.721Z,68.47
2022-11-13T10:34:50.189Z,65.40
2022-11-13T10:37:28.620Z,71.57
2022-11-13T10:39:56.253Z,65.90
2022-11-13T10:42:29.648Z,61.70
2022-11-13T10:44:59.345Z,74.07
2022-11-13T10:47:56.669Z,69.87
2022-11-13T10:50:21.533Z,63.43
2022-11-13T10:52:50.555Z,68.13
2022-11-13T10:55:24.257Z,73.47
2022-11-13T10:58:01.352Z,65.73
2022-11-13T11:00:32.918Z,69.53
2022-11-13T11:03:00.700Z,72.97
2022-11-13T11:05:29.706Z,68.37
2022-11-13T11:07:58.219Z,71.30
2022-11-13T11:10:32.053Z,70.17
2022-11-13T11:13:04.476Z,76.70
2022-11-13T11:15:41.053Z,66.57
2022-11-13T11:18:20.199Z,71.97
2022-11-13T11:20:50.948Z,75.80
2022-11-13T11:23:24.349Z,67.37
2022-11-13T11:25:55.976Z,72.33
2022-11-13T11:28:31.453Z,66.03
2022-11-13T11:31:06.184Z,63.77
2022-11-13T11:33:36.313Z,64.93
2022-11-13T11:36:09.716Z,64.93
2022-11-13T11:38:43.624Z,73.17
2022-11-13T11:41:16.904Z,68.77
2022-11-13T11:43:49.944Z,69.73
2022-11-13T11:46:23.394Z,63.53
2022-11-13T11:48:51.836Z,70.23
2022-11-13T11:51:25.437Z,63.47
2022-11-13T11:54:31.365Z,64.23
2022-11-13T11:57:02.672Z,63.13
2022-11-13T11:59:38.483Z,65.50
2022-11-13T12:02:36.158Z,61.17
2022-11-13T12:05:20.366Z,64.67
2022-11-13T12:07:56.488Z,65.20
2022-11-13T12:10:31.245Z,68.27
2022-11-13T12:13:14.576Z,73.33
2022-11-13T12:15:50.947Z,76.33
2022-11-13T12:18:28.821Z,60.23
2022-11-13T12:21:03.700Z,60.53
2022-11-13T12:23:38.534Z,31.13
2022-11-13T12:26:13.552Z,38.87
2022-11-13T12:30:15.365Z,35.10
2022-11-13T12:33:00.754Z,26.60
2022-11-13T12:35:28.923Z,26.63
2022-11-13T12:37:59.147Z,30.73
2022-11-13T12:40:32.710Z,26.40
2022-11-13T12:43:24.104Z,31.73
2022-11-13T12:45:54.456Z,22.63
2022-11-13T12:48:28.191Z,28.03
2022-11-13T12:51:01.140Z,30.97
2022-11-13T12:53:31.135Z,23.03
2022-11-13T12:56:00.924Z,24.13
2022-11-13T12:58:30.865Z,27.53
2022-11-13T13:01:03.424Z,45.60
2022-11-13T13:03:47.009Z,34.90
2022-11-13T13:06:25.239Z,38.03
2022-11-13T13:09:04.405Z,32.87
2022-11-13T13:11:39.544Z,41.87
2022-11-13T13:14:21.693Z,24.83
2022-11-13T13:16:50.696Z,38.47
2022-11-13T13:19:26.808Z,23.83
2022-11-13T13:21:54.618Z,17.03
2022-11-13T13:24:30.176Z,24.33
2022-11-13T13:26:57.962Z,33.97
2022-11-13T13:29:27.076Z,36.20
2022-11-13T13:32:10.063Z,21.13
2022-11-13T13:34:47.707Z,28.80
2022-11-13T13:37:23.398Z,32.33
2022-11-13T13:39:58.442Z,21.20
2022-11-13T13:42:42.298Z,25.37
2022-11-13T13:45:24.932Z,26.90
2022-11-13T13:47:56.089Z,21.93
2022-11-13T13:50:26.263Z,23.50
2022-11-13T13:52:55.943Z,18.53
2022-11-13T13:55:28.855Z,51.93
2022-11-13T13:57:57.741Z,16.23
2022-11-13T14:00:26.984Z,20.30
2022-11-13T14:02:56.004Z,20.67
2022-11-13T14:05:31.391Z,27.23
2022-11-13T14:07:59.698Z,34.33
2022-11-13T14:10:28.925Z,22.70
2022-11-13T14:12:57.517Z,19.70
2022-11-13T14:15:28.296Z,35.53
2022-11-13T14:18:08.444Z,28.33
2022-11-13T14:20:41.936Z,41.63
2022-11-13T14:23:12.419Z,33.20
2022-11-13T14:25:40.297Z,36.23
2022-11-13T14:28:15.060Z,28.57
2022-11-13T14:30:42.896Z,22.83
2022-11-13T14:33:14.883Z,19.30
2022-11-13T14:35:42.572Z,34.77
2022-11-13T14:38:20.248Z,24.43
2022-11-13T14:40:49.156Z,27.43
2022-11-13T14:43:21.692Z,24.03
2022-11-13T14:45:58.165Z,28.30
2022-11-13T14:48:28.630Z,21.33
2022-11-13T14:50:58.179Z,29.10
2022-11-13T14:53:31.569Z,23.80
2022-11-13T14:56:02.503Z,27.47
2022-11-13T14:58:31.677Z,25.77
2022-11-13T15:01:00.140Z,46.33
2022-11-13T15:03:29.713Z,30.23
2022-11-13T15:05:57.616Z,51.67
2022-11-13T15:08:25.303Z,35.97
2022-11-13T15:10:53.227Z,37.97
2022-11-13T15:13:20.885Z,31.87
2022-11-13T15:15:48.530Z,30.23
2022-11-13T15:18:18.240Z,40.87
2022-11-13T15:20:47.428Z,40.10
2022-11-13T15:23:16.936Z,38.17
2022-11-13T15:25:44.648Z,37.83
2022-11-13T15:28:12.296Z,44.53
2022-11-13T15:30:39.957Z,38.83
2022-11-13T15:33:14.307Z,40.97
2022-11-13T15:35:43.090Z,38.10
2022-11-13T15:38:12.545Z,35.90
2022-11-13T15:40:40.445Z,34.60
2022-11-13T15:43:13.084Z,35.47
2022-11-13T15:45:44.183Z,34.43
2022-11-13T15:48:13.499Z,30.73
2022-11-13T15:50:41.216Z,27.60
2022-11-13T15:53:10.007Z,37.03
2022-11-13T15:55:40.768Z,36.77
2022-11-13T15:58:14.986Z,42.83
2022-11-13T16:00:42.916Z,38.60
2022-11-13T16:03:12.049Z,40.83
2022-11-13T16:05:39.812Z,44.47
2022-11-13T16:08:12.603Z,51.00
2022-11-13T16:10:41.613Z,45.07
2022-11-13T16:13:09.268Z,38.40
2022-11-13T16:15:36.896Z,37.10
2022-11-13T16:18:04.698Z,52.37
2022-11-13T16:20:32.483Z,46.10
2022-11-13T16:23:00.169Z,42.30
2022-11-13T16:25:27.840Z,58.87
2022-11-13T16:27:56.865Z,53.37
2022-11-13T16:30:25.320Z,66.87
2022-11-13T16:32:53.234Z,59.57
2022-11-13T16:35:21.572Z,62.43
2022-11-13T16:37:49.270Z,63.20
2022-11-13T16:40:21.089Z,78.27
2022-11-13T16:42:48.785Z,83.67
2022-11-13T16:45:17.980Z,68.30
2022-11-13T16:47:46.399Z,54.00
2022-11-13T16:50:15.583Z,74.27
2022-11-13T16:52:43.331Z,48.33
2022-11-13T16:55:11.244Z,88.10
2022-11-13T16:57:39.118Z,90.63
2022-11-13T17:00:08.378Z,87.90
2022-11-13T17:02:37.523Z,82.57
2022-11-13T17:05:05.936Z,84.07
2022-11-13T17:07:33.658Z,69.73
2022-11-13T17:10:29.814Z,79.57
2022-11-13T17:12:52.058Z,79.73
2022-11-13T17:15:20.236Z,84.90
2022-11-13T17:17:49.456Z,87.80
2022-11-13T17:20:19.392Z,117.50
2022-11-13T17:22:49.737Z,84.97
2022-11-13T17:25:18.518Z,78.33
2022-11-13T17:27:46.367Z,89.20
2022-11-13T17:30:15.162Z,82.43
2022-11-13T17:32:43.793Z,95.90
2022-11-13T17:35:14.399Z,84.70
2022-11-13T17:37:42.394Z,95.03
2022-11-13T17:40:11.306Z,89.10
2022-11-13T17:42:38.967Z,88.20
2022-11-13T17:45:07.661Z,80.53
2022-11-13T17:47:35.406Z,99.43
2022-11-13T17:50:07.290Z,77.47
2022-11-13T17:52:36.956Z,76.37
2022-11-13T17:55:07.271Z,79.57
2022-11-13T17:57:34.996Z,83.43
2022-11-13T18:00:02.755Z,77.87
2022-11-13T18:02:30.572Z,71.27
2022-11-13T18:05:01.153Z,74.77
2022-11-13T18:07:28.977Z,83.73
2022-11-13T18:09:58.279Z,70.37
2022-11-13T18:12:25.905Z,68.87
2022-11-13T18:14:53.579Z,77.27
2022-11-13T18:17:22.058Z,76.13
2022-11-13T18:19:50.544Z,71.47
2022-11-13T18:22:18.296Z,79.97
2022-11-13T18:24:45.994Z,83.77
2022-11-13T18:27:15.287Z,81.63
2022-11-13T18:29:42.929Z,79.43
2022-11-13T18:32:10.654Z,76.80
2022-11-13T18:34:38.292Z,87.80
2022-11-13T18:37:06.004Z,75.87
2022-11-13T18:39:33.643Z,74.17
2022-11-13T18:42:01.302Z,72.97
2022-11-13T18:44:30.452Z,79.27
2022-11-13T18:46:58.128Z,80.80
2022-11-13T18:49:25.808Z,73.90
2022-11-13T18:51:53.454Z,104.23
2022-11-13T18:54:21.164Z,91.37
2022-11-13T18:56:48.854Z,76.17
2022-11-13T18:59:16.546Z,79.27
2022-11-13T19:01:45.598Z,73.60
2022-11-13T19:04:24.228Z,69.07
2022-11-13T19:06:52.448Z,65.13
2022-11-13T19:09:20.328Z,69.67
2022-11-13T19:11:48.226Z,78.67
2022-11-13T19:14:17.354Z,78.67
2022-11-13T19:16:46.488Z,71.53
2022-11-13T19:19:17.387Z,66.53
2022-11-13T19:21:45.683Z,73.43
2022-11-13T19:24:14.852Z,66.13
2022-11-13T19:26:43.047Z,85.73
2022-11-13T19:29:11.048Z,64.60
2022-11-13T19:31:38.752Z,72.80
2022-11-13T19:34:08.815Z,68.90
2022-11-13T19:36:37.441Z,73.63
2022-11-13T19:39:05.935Z,66.63
2022-11-13T19:41:33.775Z,60.67
2022-11-13T19:44:01.413Z,61.67
2022-11-13T19:46:31.844Z,71.07
2022-11-13T19:48:59.526Z,68.50
2022-11-13T19:51:28.596Z,64.30
2022-11-13T19:53:58.131Z,73.13
2022-11-13T19:56:27.117Z,65.17
2022-11-13T19:58:55.444Z,66.30
2022-11-13T20:01:24.637Z,69.00
2022-11-13T20:03:55.119Z,65.23
2022-11-13T20:06:22.926Z,67.67
2022-11-13T20:08:51.924Z,61.70
2022-11-13T20:11:20.384Z,73.33
2022-11-13T20:13:48.281Z,74.93
2022-11-13T20:16:17.318Z,68.87
2022-11-13T20:18:45.318Z,89.77
2022-11-13T20:21:13.040Z,59.00
2022-11-13T20:23:40.729Z,68.57
2022-11-13T20:26:13.592Z,61.03
2022-11-13T20:28:41.270Z,88.20
2022-11-13T20:31:14.164Z,60.67
2022-11-13T20:33:41.813Z,66.67
2022-11-13T20:36:10.584Z,59.87
2022-11-13T20:38:38.392Z,65.33
2022-11-13T20:41:06.629Z,59.47
2022-11-13T20:43:35.657Z,81.63
2022-11-13T20:46:04.162Z,60.97
2022-11-13T20:48:32.124Z,69.97
2022-11-13T20:51:06.239Z,69.20
2022-11-13T20:53:35.683Z,67.70
2022-11-13T20:56:03.465Z,71.93
2022-11-13T20:58:31.689Z,62.53
2022-11-13T21:01:04.648Z,77.53
2022-11-13T21:03:34.938Z,76.33
2022-11-13T21:06:06.726Z,72.43
2022-11-13T21:08:34.689Z,66.10
2022-11-13T21:11:02.909Z,66.17
2022-11-13T21:13:30.769Z,67.40
2022-11-13T21:15:58.476Z,66.70
2022-11-13T21:18:27.668Z,72.20
2022-11-13T21:20:55.594Z,66.23
2022-11-13T21:23:23.259Z,66.77
2022-11-13T21:25:59.539Z,62.10
2022-11-13T21:28:32.300Z,65.77
2022-11-13T21:31:02.737Z,63.60
2022-11-13T21:33:31.814Z,64.30
2022-11-13T21:36:05.235Z,64.77
2022-11-13T21:38:32.884Z,65.63
2022-11-13T21:41:14.717Z,63.33
2022-11-13T21:43:42.380Z,69.73
2022-11-13T21:46:10.058Z,68.43
2022-11-13T21:48:39.490Z,63.27
2022-11-13T21:51:07.432Z,64.10
2022-11-13T21:53:35.113Z,49.27
2022-11-13T21:56:02.816Z,63.00
2022-11-13T21:58:31.931Z,63.57
2022-11-13T22:00:59.986Z,54.33
2022-11-13T22:03:28.480Z,65.93
2022-11-13T22:06:19.528Z,77.77
2022-11-13T22:08:48.780Z,69.37
2022-11-13T22:11:16.441Z,66.20
2022-11-13T22:13:44.128Z,53.47
2022-11-13T22:16:12.852Z,52.00
2022-11-13T22:18:40.632Z,68.40
2022-11-13T22:21:11.308Z,69.37
2022-11-13T22:23:40.807Z,57.47
2022-11-13T22:26:10.079Z,64.33
2022-11-13T22:28:39.429Z,66.50
2022-11-13T22:31:07.631Z,63.67
2022-11-13T22:33:37.059Z,64.57
2022-11-13T22:36:05.887Z,66.47
2022-11-13T22:38:34.395Z,65.70
2022-11-13T22:41:07.945Z,64.27
2022-11-13T22:43:37.205Z,65.60
2022-11-13T22:46:06.330Z,66.00
2022-11-13T22:48:35.253Z,67.10
2022-11-13T22:51:04.225Z,62.10
2022-11-13T22:53:31.897Z,59.57
2022-11-13T22:56:03.492Z,59.13
2022-11-13T22:58:32.664Z,49.77
2022-11-13T23:01:07.736Z,61.17
2022-11-13T23:03:38.196Z,51.33
2022-11-13T23:06:06.388Z,56.30
2022-11-13T23:08:38.555Z,67.27
2022-11-13T23:11:06.704Z,57.67
2022-11-13T23:13:35.783Z,58.13
2022-11-13T23:16:03.693Z,62.43
2022-11-13T23:18:32.130Z,65.33
2022-11-13T23:21:00.309Z,48.57
2022-11-13T23:23:27.945Z,54.07
2022-11-13T23:25:55.640Z,61.27
2022-11-13T23:28:23.340Z,68.17
2022-11-13T23:30:52.364Z,55.20
2022-11-13T23:33:20.004Z,63.20
2022-11-13T23:35:47.711Z,62.70
2022-11-13T23:38:15.398Z,69.27
2022-11-13T23:40:43.188Z,62.53
2022-11-13T23:43:10.868Z,70.00
2022-11-13T23:45:39.539Z,62.67
2022-11-13T23:48:08.731Z,68.53
2022-11-13T23:50:37.688Z,65.70
2022-11-13T23:53:05.436Z,59.10
2022-11-13T23:55:33.214Z,64.17
2022-11-13T23:58:01.651Z,69.67
